YBMA

Details ICAO YBMA (ISA)
Name Mount Isa
Region Australia
Timezone Australia/Brisbane (UTC+10.0)
Plans Departing 333
Arriving 398
Stats Elevation 1,121 ft / 342 m (AMSL)
Location -20.666400° 139.488000°
Runways 1
Magnetic Variation 5.611° E
Sunrise 2019-08-19 21:02:55 UTC / 2019-08-20 07:02:55 Local
Sunset 2019-08-20 08:31:17 UTC / 2019-08-20 18:31:17 Local
Advertisement - Login to hide

Runways

ID Width Length Bearing (true/mag) Surface Threshold Overrun Markings Lighting
16 148 ft / 45 m 8,859 ft / 2,700 m 167.80° / 162.19° ASPHALT 210 ft / 64 m 79 ft / 24 m APP EDGE THRESHOLD
34 148 ft / 45 m 8,859 ft / 2,700 m 347.80° / 342.19° ASPHALT 213 ft / 65 m 49 ft / 15 m APP EDGE THRESHOLD

Map

Weather


0- 5 10 15 20 25 30 35+ Temperature / °C

Clouds and Precipitation
Forecast for 2019-08-19 18:00 UTC. Updated 5 hours ago

Ground ~20,000 ft ~40,000 ft Winds

METAR

YBMA 192000Z AUTO 17011KT 9999 // NCD 10/M05 Q1025

TAF

TAF TAF YBMA 191639Z 1918/2006 18014KT CAVOK FM192300 16017G27KT CAVOK

Frequencies

Unicom 126.50 MHz CTAF
Warning: Do not use this data for real-world aviation or navigation. No guarantee of current accuracy is given.